createdAt,value
2023-05-07T00:01:42.010Z,16.81
2023-05-07T00:04:11.276Z,16.83
2023-05-07T00:06:39.033Z,16.81
2023-05-07T00:09:06.533Z,16.75
2023-05-07T00:11:35.053Z,16.70
2023-05-07T00:14:03.960Z,16.67
2023-05-07T00:16:31.624Z,16.62
2023-05-07T00:18:59.117Z,16.65
2023-05-07T00:21:28.048Z,16.53
2023-05-07T00:23:55.874Z,16.57
2023-05-07T00:26:25.811Z,16.57
2023-05-07T00:28:53.273Z,16.56
2023-05-07T00:31:20.801Z,16.53
2023-05-07T00:33:48.556Z,16.50
2023-05-07T00:36:16.023Z,16.41
2023-05-07T00:38:44.819Z,16.39
2023-05-07T00:41:12.314Z,16.40
2023-05-07T00:43:39.826Z,16.38
2023-05-07T00:46:07.431Z,16.40
2023-05-07T00:48:35.183Z,16.46
2023-05-07T00:51:02.740Z,16.46
2023-05-07T00:53:30.254Z,16.39
2023-05-07T00:55:59.241Z,16.41
2023-05-07T00:58:26.764Z,16.44
2023-05-07T01:00:54.255Z,16.46
2023-05-07T01:03:22.574Z,16.41
2023-05-07T01:05:51.259Z,16.37
2023-05-07T01:08:19.750Z,16.39
2023-05-07T01:10:47.581Z,16.37
2023-05-07T01:13:16.544Z,16.28
2023-05-07T01:15:44.723Z,16.33
2023-05-07T01:18:12.381Z,16.36
2023-05-07T01:20:40.069Z,16.37
2023-05-07T01:23:09.088Z,16.38
2023-05-07T01:25:36.664Z,16.37
2023-05-07T01:28:04.212Z,16.29
2023-05-07T01:30:31.785Z,16.35
2023-05-07T01:33:01.644Z,16.39
2023-05-07T01:35:31.483Z,16.35
2023-05-07T01:37:59.122Z,16.28
2023-05-07T01:40:27.995Z,16.28
2023-05-07T01:42:56.230Z,16.29
2023-05-07T01:45:23.795Z,16.33
2023-05-07T01:47:51.735Z,16.27
2023-05-07T01:50:20.669Z,16.27
2023-05-07T01:52:49.181Z,16.33
2023-05-07T01:55:16.614Z,16.29
2023-05-07T01:57:45.461Z,16.32
2023-05-07T02:00:13.943Z,16.27
2023-05-07T02:02:41.666Z,16.24
2023-05-07T02:05:10.069Z,16.18
2023-05-07T02:07:37.533Z,16.16
2023-05-07T02:10:06.036Z,16.13
2023-05-07T02:12:33.589Z,16.23
2023-05-07T02:15:03.536Z,16.20
2023-05-07T02:17:34.205Z,16.13
2023-05-07T02:20:01.759Z,16.13
2023-05-07T02:22:29.237Z,16.10
2023-05-07T02:24:56.662Z,16.09
2023-05-07T02:27:24.126Z,16.09
2023-05-07T02:29:51.576Z,16.13
2023-05-07T02:32:20.736Z,16.08
2023-05-07T02:34:48.192Z,16.08
2023-05-07T02:37:15.633Z,16.09
2023-05-07T02:39:43.083Z,16.06
2023-05-07T02:42:10.537Z,16.04
2023-05-07T02:44:38.023Z,16.05
2023-05-07T02:47:05.919Z,15.94
2023-05-07T02:49:34.904Z,15.93
2023-05-07T02:52:02.455Z,15.99
2023-05-07T02:54:29.920Z,15.97
2023-05-07T02:56:57.361Z,15.99
2023-05-07T02:59:26.146Z,16.00
2023-05-07T03:01:53.618Z,15.99
2023-05-07T03:04:21.337Z,15.93
2023-05-07T03:06:50.242Z,15.96
2023-05-07T03:09:17.726Z,15.91
2023-05-07T03:11:45.428Z,15.87
2023-05-07T03:14:12.870Z,15.90
2023-05-07T03:16:41.145Z,15.90
2023-05-07T03:19:08.687Z,15.87
2023-05-07T03:21:36.227Z,15.85
2023-05-07T03:24:05.536Z,15.90
2023-05-07T03:26:32.995Z,15.90
2023-05-07T03:29:00.439Z,15.87
2023-05-07T03:31:27.929Z,15.85
2023-05-07T03:33:57.058Z,15.84
2023-05-07T03:36:25.062Z,15.81
2023-05-07T03:38:52.554Z,15.84
2023-05-07T03:41:21.647Z,15.78
2023-05-07T03:43:49.111Z,15.79
2023-05-07T03:46:16.697Z,15.83
2023-05-07T03:48:44.176Z,15.78
2023-05-07T03:51:11.624Z,15.77
2023-05-07T03:53:39.114Z,15.75
2023-05-07T03:56:06.825Z,15.80
2023-05-07T03:58:35.831Z,15.79
2023-05-07T04:01:03.690Z,15.72
2023-05-07T04:03:31.409Z,15.69
2023-05-07T04:05:58.971Z,15.68
2023-05-07T04:08:26.705Z,15.70
2023-05-07T04:10:57.018Z,15.70
2023-05-07T04:13:24.736Z,15.66
2023-05-07T04:15:53.836Z,15.59
2023-05-07T04:18:22.204Z,15.66
2023-05-07T04:20:50.218Z,15.63
2023-05-07T04:23:17.973Z,15.65
2023-05-07T04:25:46.092Z,15.68
2023-05-07T04:28:13.747Z,15.67
2023-05-07T04:30:42.185Z,15.64
2023-05-07T04:33:11.494Z,15.63
2023-05-07T04:35:39.152Z,15.59
2023-05-07T04:38:06.625Z,15.64
2023-05-07T04:40:34.085Z,15.65
2023-05-07T04:43:02.168Z,15.64
2023-05-07T04:45:29.634Z,15.68
2023-05-07T04:47:57.146Z,15.67
2023-05-07T04:50:26.839Z,15.57
2023-05-07T04:52:54.478Z,15.64
2023-05-07T04:55:21.969Z,15.63
2023-05-07T04:57:49.430Z,15.58
2023-05-07T05:00:17.555Z,15.60
2023-05-07T05:02:45.084Z,15.56
2023-05-07T05:05:12.685Z,15.63
2023-05-07T05:07:41.470Z,15.63
2023-05-07T05:10:09.445Z,15.61
2023-05-07T05:12:37.129Z,15.60
2023-05-07T05:15:05.376Z,15.70
2023-05-07T05:17:32.874Z,15.74
2023-05-07T05:20:00.468Z,15.75
2023-05-07T05:22:30.695Z,15.77
2023-05-07T05:24:59.508Z,15.76
2023-05-07T05:27:27.027Z,15.72
2023-05-07T05:29:54.481Z,15.80
2023-05-07T05:32:22.087Z,15.79
2023-05-07T05:34:49.990Z,15.80
2023-05-07T05:37:17.583Z,15.80
2023-05-07T05:39:45.129Z,15.82
2023-05-07T05:42:13.918Z,15.81
2023-05-07T05:44:41.389Z,15.82
2023-05-07T05:47:08.947Z,15.82
2023-05-07T05:49:36.448Z,15.83
2023-05-07T05:52:04.105Z,15.87
2023-05-07T05:54:32.986Z,15.87
2023-05-07T05:57:00.462Z,15.90
2023-05-07T05:59:29.316Z,15.93
2023-05-07T06:01:56.889Z,15.96
2023-05-07T06:04:24.355Z,15.99
2023-05-07T06:06:51.864Z,16.03
2023-05-07T06:09:19.301Z,16.05
2023-05-07T06:11:46.810Z,16.19
2023-05-07T06:14:14.290Z,16.20
2023-05-07T06:16:43.176Z,16.22
2023-05-07T06:19:10.651Z,16.27
2023-05-07T06:21:38.126Z,16.33
2023-05-07T06:24:05.988Z,16.41
2023-05-07T06:26:33.450Z,16.50
2023-05-07T06:29:00.899Z,16.55
2023-05-07T06:31:31.774Z,16.54
2023-05-07T06:34:03.405Z,16.63
2023-05-07T06:36:31.139Z,16.66
2023-05-07T06:38:58.648Z,16.71
2023-05-07T06:41:26.814Z,16.77
2023-05-07T06:43:54.334Z,16.82
2023-05-07T06:46:22.270Z,16.86
2023-05-07T06:48:49.919Z,16.88
2023-05-07T06:51:18.699Z,16.84
2023-05-07T06:53:46.173Z,16.92
2023-05-07T06:56:13.675Z,16.96
2023-05-07T06:58:41.181Z,17.07
2023-05-07T07:01:08.727Z,17.10
2023-05-07T07:03:36.221Z,17.18
2023-05-07T07:06:04.197Z,17.30
2023-05-07T07:08:33.057Z,17.43
2023-05-07T07:11:00.517Z,17.53
2023-05-07T07:13:28.063Z,17.53
2023-05-07T07:15:55.724Z,17.50
2023-05-07T07:18:23.239Z,17.54
2023-05-07T07:20:50.936Z,17.64
2023-05-07T07:23:18.382Z,17.62
2023-05-07T07:25:47.413Z,17.65
2023-05-07T07:28:14.897Z,17.71
2023-05-07T07:30:42.369Z,17.85
2023-05-07T07:33:09.879Z,17.95
2023-05-07T07:35:37.467Z,18.00
2023-05-07T07:38:04.925Z,18.12
2023-05-07T07:40:32.402Z,18.13
2023-05-07T07:43:02.216Z,18.16
2023-05-07T07:45:29.983Z,18.25
2023-05-07T07:47:57.473Z,18.31
2023-05-07T07:50:36.050Z,18.31
2023-05-07T07:53:10.874Z,18.36
2023-05-07T07:55:40.497Z,18.41
2023-05-07T07:58:09.438Z,18.41
2023-05-07T08:00:37.008Z,18.55
2023-05-07T08:03:06.168Z,18.56
2023-05-07T08:05:33.853Z,18.65
2023-05-07T08:08:01.332Z,18.85
2023-05-07T08:10:29.044Z,18.91
2023-05-07T08:12:56.578Z,18.91
2023-05-07T08:15:25.404Z,18.99
2023-05-07T08:17:52.897Z,19.04
2023-05-07T08:20:20.758Z,19.10
2023-05-07T08:22:48.241Z,19.17
2023-05-07T08:25:15.757Z,19.28
2023-05-07T08:27:43.247Z,19.18
2023-05-07T08:30:11.994Z,19.28
2023-05-07T08:32:41.096Z,19.15
2023-05-07T08:35:09.507Z,19.11
2023-05-07T08:37:36.979Z,19.39
2023-05-07T08:40:06.598Z,19.45
2023-05-07T08:42:37.879Z,19.25
2023-05-07T08:45:07.618Z,19.21
2023-05-07T08:47:39.506Z,19.18
2023-05-07T08:50:09.523Z,19.52
2023-05-07T08:52:37.405Z,19.65
2023-05-07T08:55:05.984Z,19.89
2023-05-07T08:57:33.499Z,19.88
2023-05-07T09:00:01.048Z,19.82
2023-05-07T09:02:28.586Z,20.05
2023-05-07T09:04:56.285Z,20.25
2023-05-07T09:07:25.630Z,20.37
2023-05-07T09:09:53.133Z,20.37
2023-05-07T09:12:20.697Z,20.38
2023-05-07T09:14:48.178Z,20.47
2023-05-07T09:17:15.664Z,20.51
2023-05-07T09:19:43.118Z,20.54
2023-05-07T09:22:10.593Z,20.81
2023-05-07T09:24:39.584Z,20.87
2023-05-07T09:27:07.863Z,21.02
2023-05-07T09:29:36.390Z,20.90
2023-05-07T09:32:04.547Z,20.85
2023-05-07T09:34:32.208Z,21.07
2023-05-07T09:37:00.709Z,21.11
2023-05-07T09:39:28.217Z,20.80
2023-05-07T09:41:59.401Z,21.06
2023-05-07T09:44:27.716Z,20.88
2023-05-07T09:46:56.583Z,20.82
2023-05-07T09:49:25.835Z,20.72
2023-05-07T09:51:54.672Z,20.53
2023-05-07T09:54:22.135Z,20.91
2023-05-07T09:56:50.279Z,21.01
2023-05-07T09:59:19.077Z,20.87
2023-05-07T10:01:47.054Z,20.92
2023-05-07T10:04:14.791Z,21.00
2023-05-07T10:06:42.831Z,21.19
2023-05-07T10:09:10.703Z,21.24
2023-05-07T10:11:38.871Z,21.28
2023-05-07T10:14:07.304Z,21.18
2023-05-07T10:16:38.067Z,21.20
2023-05-07T10:19:05.826Z,21.29
2023-05-07T10:21:36.062Z,21.33
2023-05-07T10:24:09.397Z,21.32
2023-05-07T10:26:37.254Z,21.30
2023-05-07T10:29:09.377Z,21.46
2023-05-07T10:31:51.337Z,21.59
2023-05-07T10:34:24.367Z,21.72
2023-05-07T10:36:52.802Z,21.86
2023-05-07T10:39:21.670Z,21.98
2023-05-07T10:41:49.278Z,22.06
2023-05-07T10:44:27.930Z,22.02
2023-05-07T10:47:09.889Z,22.00
2023-05-07T10:49:38.332Z,22.03
2023-05-07T10:52:16.876Z,21.90
2023-05-07T10:54:45.397Z,22.01
2023-05-07T10:57:35.085Z,22.17
2023-05-07T11:00:02.647Z,22.06
2023-05-07T11:03:08.024Z,22.07
2023-05-07T11:05:38.252Z,22.17
2023-05-07T11:08:06.958Z,22.17
2023-05-07T11:10:50.164Z,22.46
2023-05-07T11:13:17.889Z,22.63
2023-05-07T11:15:46.892Z,22.67
2023-05-07T11:18:17.050Z,22.62
2023-05-07T11:20:49.860Z,22.65
2023-05-07T11:24:09.743Z,22.73
2023-05-07T11:26:45.902Z,22.87
2023-05-07T11:29:14.897Z,22.97
2023-05-07T11:31:42.608Z,22.85
2023-05-07T11:34:11.592Z,22.90
2023-05-07T11:36:44.698Z,22.93
2023-05-07T11:39:28.839Z,22.97
2023-05-07T11:41:56.673Z,22.99
2023-05-07T11:44:24.291Z,23.09
2023-05-07T11:46:51.985Z,23.15
2023-05-07T11:49:21.025Z,23.22
2023-05-07T11:51:48.572Z,23.21
2023-05-07T11:54:18.076Z,23.22
2023-05-07T11:56:46.056Z,23.42
2023-05-07T11:59:13.559Z,23.43
2023-05-07T12:01:41.060Z,23.44
2023-05-07T12:04:08.769Z,23.62
2023-05-07T12:06:40.018Z,23.70
2023-05-07T12:09:12.393Z,23.79
2023-05-07T12:11:41.576Z,23.89
2023-05-07T12:14:11.550Z,23.95
2023-05-07T12:16:40.907Z,23.92
2023-05-07T12:19:09.840Z,23.95
2023-05-07T12:21:38.702Z,23.91
2023-05-07T12:24:06.931Z,23.77
2023-05-07T12:26:34.419Z,23.96
2023-05-07T12:29:01.943Z,24.18
2023-05-07T12:31:29.480Z,24.17
2023-05-07T12:33:56.965Z,23.79
2023-05-07T12:36:24.412Z,24.01
2023-05-07T12:38:53.378Z,24.23
2023-05-07T12:41:26.581Z,24.34
2023-05-07T12:43:58.326Z,24.23
2023-05-07T12:46:25.872Z,24.36
2023-05-07T12:48:54.421Z,24.34
2023-05-07T12:51:21.949Z,24.26
2023-05-07T12:53:49.429Z,24.29
2023-05-07T12:56:18.705Z,24.33
2023-05-07T12:58:46.164Z,24.28
2023-05-07T13:01:16.451Z,24.23
2023-05-07T13:03:51.235Z,24.32
2023-05-07T13:06:18.843Z,24.28
2023-05-07T13:08:46.415Z,24.37
2023-05-07T13:11:14.519Z,24.42
2023-05-07T13:13:43.560Z,24.42
2023-05-07T13:16:12.612Z,23.99
2023-05-07T13:18:41.403Z,24.05
2023-05-07T13:21:09.233Z,24.30
2023-05-07T13:23:36.680Z,24.39
2023-05-07T13:26:11.492Z,24.45
2023-05-07T13:28:44.326Z,24.52
2023-05-07T13:31:13.487Z,24.34
2023-05-07T13:33:40.969Z,24.26
2023-05-07T13:36:08.810Z,24.64
2023-05-07T13:38:36.347Z,24.66
2023-05-07T13:41:03.817Z,24.70
2023-05-07T13:43:32.768Z,24.64
2023-05-07T13:46:01.914Z,24.69
2023-05-07T13:48:29.635Z,24.75
2023-05-07T13:50:57.058Z,24.66
2023-05-07T13:53:24.581Z,24.85
2023-05-07T13:55:52.060Z,24.83
2023-05-07T13:58:19.532Z,24.81
2023-05-07T14:00:47.051Z,24.88
2023-05-07T14:03:15.998Z,24.86
2023-05-07T14:05:43.675Z,24.68
2023-05-07T14:08:11.859Z,24.66
2023-05-07T14:10:39.319Z,24.67
2023-05-07T14:13:07.341Z,24.57
2023-05-07T14:15:34.980Z,24.44
2023-05-07T14:18:02.693Z,24.25
2023-05-07T14:20:32.037Z,24.23
2023-05-07T14:22:59.498Z,24.20
2023-05-07T14:25:26.966Z,24.13
2023-05-07T14:27:54.502Z,24.21
2023-05-07T14:30:23.261Z,24.17
2023-05-07T14:32:50.933Z,24.04
2023-05-07T14:35:18.656Z,24.04
2023-05-07T14:37:47.438Z,24.09
2023-05-07T14:40:15.615Z,24.23
2023-05-07T14:42:43.084Z,24.14
2023-05-07T14:45:13.925Z,24.23
2023-05-07T14:47:41.680Z,24.14
2023-05-07T14:50:09.598Z,24.11
2023-05-07T14:52:37.080Z,24.19
2023-05-07T14:55:06.870Z,24.12
2023-05-07T14:57:36.700Z,23.86
2023-05-07T15:00:05.886Z,23.91
2023-05-07T15:02:33.405Z,23.85
2023-05-07T15:05:00.986Z,23.94
2023-05-07T15:07:28.442Z,23.83
2023-05-07T15:09:56.220Z,23.76
2023-05-07T15:12:25.020Z,23.81
2023-05-07T15:14:52.467Z,23.68
2023-05-07T15:17:19.944Z,23.66
2023-05-07T15:19:47.393Z,23.56
2023-05-07T15:22:14.869Z,23.51
2023-05-07T15:24:42.863Z,23.43
2023-05-07T15:27:10.374Z,23.47
2023-05-07T15:29:39.156Z,23.43
2023-05-07T15:32:06.964Z,23.35
2023-05-07T15:34:34.541Z,23.40
2023-05-07T15:39:29.782Z,23.27
2023-05-07T15:41:57.251Z,23.17
2023-05-07T15:44:28.284Z,23.15
2023-05-07T15:46:57.165Z,23.07
2023-05-07T15:49:24.644Z,23.02
2023-05-07T15:51:52.979Z,23.06
2023-05-07T15:54:21.138Z,23.04
2023-05-07T15:56:48.865Z,23.04
2023-05-07T15:59:18.169Z,23.02
2023-05-07T16:01:46.155Z,22.99
2023-05-07T16:04:15.119Z,22.96
2023-05-07T16:06:44.759Z,22.94
2023-05-07T16:09:12.320Z,22.97
2023-05-07T16:11:39.907Z,22.90
2023-05-07T16:14:07.542Z,22.87
2023-05-07T16:16:35.485Z,22.93
2023-05-07T16:19:02.983Z,22.84
2023-05-07T16:21:32.821Z,22.91
2023-05-07T16:24:00.662Z,22.93
2023-05-07T16:26:28.229Z,22.90
2023-05-07T16:28:55.822Z,22.79
2023-05-07T16:31:23.603Z,22.79
2023-05-07T16:33:51.284Z,22.82
2023-05-07T16:36:19.092Z,22.84
2023-05-07T16:38:47.941Z,22.78
2023-05-07T16:41:15.404Z,22.74
2023-05-07T16:43:43.013Z,22.48
2023-05-07T16:46:10.581Z,22.17
2023-05-07T16:48:38.159Z,21.69
2023-05-07T16:51:07.182Z,20.88
2023-05-07T16:53:35.810Z,20.75
2023-05-07T16:56:06.813Z,20.49
2023-05-07T16:58:34.479Z,20.19
2023-05-07T17:01:02.388Z,19.56
2023-05-07T17:03:31.991Z,19.58
2023-05-07T17:05:59.681Z,19.47
2023-05-07T17:08:27.161Z,19.43
2023-05-07T17:10:54.763Z,19.15
2023-05-07T17:13:23.633Z,19.00
2023-05-07T17:15:51.215Z,18.99
2023-05-07T17:18:18.839Z,18.79
2023-05-07T17:20:46.264Z,18.67
2023-05-07T17:23:15.289Z,18.67
2023-05-07T17:25:45.377Z,18.00
2023-05-07T17:28:12.883Z,17.90
2023-05-07T17:30:41.750Z,17.63
2023-05-07T17:33:20.099Z,17.62
2023-05-07T17:35:48.797Z,17.47
2023-05-07T17:38:16.275Z,17.56
2023-05-07T17:40:43.732Z,17.18
2023-05-07T17:43:11.228Z,17.28
2023-05-07T17:45:38.842Z,17.61
2023-05-07T17:48:08.115Z,17.43
2023-05-07T17:50:35.588Z,17.02
2023-05-07T17:53:03.134Z,17.36
2023-05-07T17:55:33.493Z,17.16
2023-05-07T17:58:03.218Z,17.23
2023-05-07T18:00:30.793Z,17.33
2023-05-07T18:02:59.918Z,17.45
2023-05-07T18:05:29.392Z,17.45
2023-05-07T18:07:56.974Z,17.15
2023-05-07T18:10:24.439Z,17.33
2023-05-07T18:12:52.010Z,17.27
2023-05-07T18:15:19.578Z,16.89
2023-05-07T18:17:47.095Z,16.92
2023-05-07T18:20:14.706Z,16.90
2023-05-07T18:22:43.500Z,16.78
2023-05-07T18:25:11.338Z,16.51
2023-05-07T18:27:38.806Z,16.68
2023-05-07T18:30:07.550Z,16.79
2023-05-07T18:32:35.103Z,17.00
2023-05-07T18:35:02.557Z,17.02
2023-05-07T18:37:30.913Z,16.68
2023-05-07T18:40:02.761Z,16.68
2023-05-07T18:42:30.697Z,16.59
2023-05-07T18:44:58.645Z,16.55
2023-05-07T18:47:26.126Z,16.65
2023-05-07T18:49:53.553Z,16.64
2023-05-07T18:52:22.120Z,16.70
2023-05-07T18:54:49.576Z,16.60
2023-05-07T18:57:18.416Z,16.70
2023-05-07T18:59:45.970Z,16.71
2023-05-07T19:02:14.310Z,16.79
2023-05-07T19:04:41.826Z,16.77
2023-05-07T19:07:21.414Z,16.80
2023-05-07T19:10:03.713Z,16.55
2023-05-07T19:12:33.546Z,16.78
2023-05-07T19:15:01.052Z,16.75
2023-05-07T19:17:28.687Z,16.74
2023-05-07T19:19:56.244Z,16.73
2023-05-07T19:22:24.880Z,16.55
2023-05-07T19:24:52.414Z,16.52
2023-05-07T19:27:19.956Z,16.51
2023-05-07T19:29:48.730Z,16.55
2023-05-07T19:32:16.179Z,16.58
2023-05-07T19:34:43.908Z,16.61
2023-05-07T19:37:11.340Z,16.56
2023-05-07T19:39:38.800Z,16.62
2023-05-07T19:42:06.776Z,16.72
2023-05-07T19:44:34.247Z,16.84
2023-05-07T19:47:03.649Z,16.72
2023-05-07T19:49:31.150Z,16.76
2023-05-07T19:51:58.629Z,16.65
2023-05-07T19:54:26.227Z,16.63
2023-05-07T19:56:53.713Z,16.67
2023-05-07T19:59:21.397Z,16.72
2023-05-07T20:01:48.874Z,16.67
2023-05-07T20:04:17.672Z,16.75
2023-05-07T20:06:45.147Z,16.82
2023-05-07T20:09:13.557Z,16.70
2023-05-07T20:11:41.232Z,16.68
2023-05-07T20:14:09.996Z,16.86
2023-05-07T20:16:37.581Z,17.07
2023-05-07T20:19:05.039Z,17.24
2023-05-07T20:21:33.861Z,17.19
2023-05-07T20:26:43.063Z,16.85
2023-05-07T20:29:10.553Z,16.87
2023-05-07T20:31:38.128Z,16.76
2023-05-07T20:34:05.600Z,16.88
2023-05-07T20:36:35.865Z,17.17
2023-05-07T20:39:04.127Z,17.22
2023-05-07T20:41:31.579Z,17.20
2023-05-07T20:44:00.333Z,17.16
2023-05-07T20:46:27.961Z,16.89
2023-05-07T20:48:56.537Z,17.01
2023-05-07T20:51:24.066Z,16.83
2023-05-07T20:53:52.838Z,16.80
2023-05-07T20:56:21.320Z,16.67
2023-05-07T20:58:48.833Z,16.56
2023-05-07T21:01:16.327Z,16.38
2023-05-07T21:03:43.889Z,16.40
2023-05-07T21:06:11.436Z,16.38
2023-05-07T21:08:39.019Z,16.41
2023-05-07T21:11:09.807Z,16.48
2023-05-07T21:13:37.289Z,16.49
2023-05-07T21:16:05.391Z,16.45
2023-05-07T21:18:33.542Z,16.48
2023-05-07T21:21:01.041Z,16.44
2023-05-07T21:23:28.551Z,16.45
2023-05-07T21:25:56.019Z,16.32
2023-05-07T21:28:24.816Z,16.34
2023-05-07T21:30:53.170Z,16.32
2023-05-07T21:33:20.829Z,16.23
2023-05-07T21:35:48.287Z,16.12
2023-05-07T21:38:15.820Z,16.09
2023-05-07T21:40:43.277Z,16.13
2023-05-07T21:43:10.720Z,16.24
2023-05-07T21:45:39.905Z,16.40
2023-05-07T21:48:07.970Z,16.38
2023-05-07T21:50:35.782Z,16.32
2023-05-07T21:53:03.240Z,16.13
2023-05-07T21:55:30.701Z,16.11
2023-05-07T21:58:05.566Z,16.08
2023-05-07T22:00:33.998Z,16.12
2023-05-07T22:03:02.882Z,16.19
2023-05-07T22:05:30.521Z,16.25
2023-05-07T22:07:57.991Z,16.21
2023-05-07T22:10:25.640Z,16.24
2023-05-07T22:12:53.177Z,16.29
2023-05-07T22:15:20.809Z,16.23
2023-05-07T22:17:48.273Z,16.15
2023-05-07T22:20:17.409Z,16.04
2023-05-07T22:22:50.337Z,16.11
2023-05-07T22:25:20.018Z,16.23
2023-05-07T22:27:47.520Z,16.52
2023-05-07T22:30:15.291Z,16.71
2023-05-07T22:32:43.423Z,16.80
2023-05-07T22:35:11.414Z,16.74
2023-05-07T22:37:40.247Z,16.71
2023-05-07T22:40:08.901Z,16.65
2023-05-07T22:42:36.497Z,16.59
2023-05-07T22:45:04.130Z,16.48
2023-05-07T22:47:31.737Z,16.50
2023-05-07T22:49:59.263Z,16.46
2023-05-07T22:52:26.752Z,16.37
2023-05-07T22:54:55.562Z,16.32
2023-05-07T22:57:23.033Z,16.21
2023-05-07T22:59:54.587Z,16.17
2023-05-07T23:02:22.306Z,16.04
2023-05-07T23:04:49.949Z,16.00
2023-05-07T23:07:17.412Z,16.02
2023-05-07T23:09:45.074Z,15.92
2023-05-07T23:12:13.920Z,15.89
2023-05-07T23:14:41.421Z,15.90
2023-05-07T23:17:09.125Z,15.84
2023-05-07T23:19:36.987Z,15.77
2023-05-07T23:22:04.536Z,15.71
2023-05-07T23:24:32.026Z,15.70
2023-05-07T23:29:28.339Z,15.59
2023-05-07T23:31:55.793Z,15.60
2023-05-07T23:34:24.252Z,15.57
2023-05-07T23:36:52.010Z,15.58
2023-05-07T23:39:19.625Z,15.57
2023-05-07T23:41:47.502Z,15.59
2023-05-07T23:44:16.344Z,15.50
2023-05-07T23:46:45.452Z,15.41
2023-05-07T23:49:13.016Z,15.35
2023-05-07T23:51:40.454Z,15.28
2023-05-07T23:54:07.968Z,15.22
2023-05-07T23:56:35.518Z,15.20
2023-05-07T23:59:03.236Z,15.18
